Time;durP1;ratioP1;P1;durP2;ratioP2;P2;SDS_P1;SDS_P2;PMS_P1;PMS_P2;Temp;Humidity;BMP_temperature;BMP_pressure;BME280_temperature;BME280_humidity;BME280_pressure;Samples;Min_cycle;Max_cycle;Signal;HPM_P1;HPM_P2
2022/12/19 00:01:36;;;;;;;21.85;14.90;;;;;;;-0.08;100.00;101488.47;10536484;28;20572;-70
2022/12/19 00:06:39;;;;;;;18.77;13.20;;;;;;;-0.12;100.00;101473.88;10536077;28;20090;-72
2022/12/19 00:11:42;;;;;;;20.45;18.20;;;;;;;-0.14;100.00;101467.84;10533612;28;20338;-71
2022/12/19 00:16:44;;;;;;;13.65;12.30;;;;;;;-0.18;100.00;101450.69;10536099;28;20072;-71
2022/12/19 00:21:46;;;;;;;7.32;6.63;;;;;;;-0.13;100.00;101455.03;10535864;28;20071;-71
2022/12/19 00:26:49;;;;;;;12.00;9.98;;;;;;;-0.07;100.00;101458.53;10536545;28;20066;-72
2022/12/19 00:31:51;;;;;;;17.92;16.17;;;;;;;0.05;100.00;101447.53;10535575;28;20083;-71
2022/12/19 00:36:53;;;;;;;22.25;15.40;;;;;;;0.07;100.00;101449.28;10536198;28;20125;-69
2022/12/19 00:41:56;;;;;;;23.83;15.77;;;;;;;0.18;100.00;101443.41;10533401;28;20069;-69
2022/12/19 00:46:58;;;;;;;26.98;17.20;;;;;;;0.19;100.00;101437.41;10535566;28;20536;-69
2022/12/19 00:51:59;;;;;;;21.43;16.10;;;;;;;0.30;100.00;101438.38;10535394;28;20137;-68
2022/12/19 00:57:02;;;;;;;21.73;17.23;;;;;;;0.50;100.00;101425.75;10535726;28;20066;-67
2022/12/19 01:02:04;;;;;;;24.00;16.95;;;;;;;0.57;100.00;101411.25;10535456;28;20103;-70
2022/12/19 01:07:07;;;;;;;17.50;14.17;;;;;;;0.59;100.00;101416.41;10535566;28;20060;-68
2022/12/19 01:17:33;;;;;;;27.53;18.63;;;;;;;0.50;100.00;101412.91;10538367;28;20507;-70
2022/12/19 01:22:35;;;;;;;20.83;15.70;;;;;;;0.46;100.00;101402.56;10542673;28;20387;-69
2022/12/19 01:27:38;;;;;;;17.70;14.27;;;;;;;0.43;100.00;101387.13;10542873;28;20113;-68
2022/12/19 01:32:40;;;;;;;25.30;17.58;;;;;;;0.40;100.00;101382.84;10542392;28;20110;-69
2022/12/19 01:37:41;;;;;;;9.07;7.90;;;;;;;0.41;100.00;101379.41;10542004;28;20067;-69
2022/12/19 01:42:44;;;;;;;25.00;16.50;;;;;;;0.47;100.00;101394.88;10539784;28;20075;-70
2022/12/19 01:47:51;;;;;;;9.82;8.88;;;;;;;0.53;100.00;101395.78;10541630;28;20474;-68
2022/12/19 01:52:54;;;;;;;28.58;23.25;;;;;;;0.54;100.00;101384.69;10541865;28;20136;-72
2022/12/19 01:57:59;;;;;;;22.25;16.88;;;;;;;0.56;100.00;101382.97;10541974;28;20115;-72
2022/12/19 02:03:11;;;;;;;28.23;18.55;;;;;;;0.57;100.00;101369.28;10541035;28;20149;-69
2022/12/19 02:08:14;;;;;;;22.23;16.05;;;;;;;0.55;100.00;101376.13;10541266;28;20104;-69
2022/12/19 02:13:18;;;;;;;18.75;13.50;;;;;;;0.61;100.00;101356.47;10538623;28;20076;-70
2022/12/19 02:18:38;;;;;;;25.98;16.95;;;;;;;0.61;100.00;101338.50;10540633;28;20071;-69
2022/12/19 02:24:39;;;;;;;14.93;11.77;;;;;;;0.68;100.00;101341.94;10540415;28;20059;-70
2022/12/19 02:30:10;;;;;;;20.48;14.23;;;;;;;0.79;100.00;101323.19;10539407;28;20083;-70
2022/12/19 02:35:25;;;;;;;20.25;13.35;;;;;;;0.85;100.00;101310.34;10530304;28;20066;-69
2022/12/19 02:40:34;;;;;;;23.60;17.60;;;;;;;1.05;100.00;101314.75;10539777;28;20083;-71
2022/12/19 02:45:40;;;;;;;29.40;18.80;;;;;;;1.16;100.00;101313.09;10537035;28;20571;-70
2022/12/19 02:50:46;;;;;;;26.58;19.52;;;;;;;1.31;100.00;101298.56;10539732;28;20123;-69
2022/12/19 02:56:10;;;;;;;27.63;17.48;;;;;;;1.33;100.00;101289.16;10538819;28;20105;-69
2022/12/19 03:01:30;;;;;;;23.08;18.73;;;;;;;1.43;100.00;101283.19;10538863;28;20090;-70
2022/12/19 03:06:42;;;;;;;25.88;18.75;;;;;;;1.52;100.00;101285.78;10538305;28;20505;-70
2022/12/19 03:11:51;;;;;;;19.27;16.88;;;;;;;1.60;100.00;101283.22;10536566;28;20332;-69
2022/12/19 03:16:53;;;;;;;28.70;26.00;;;;;;;1.80;100.00;101285.84;10538124;28;20062;-69
2022/12/19 03:21:56;;;;;;;19.75;17.70;;;;;;;1.85;100.00;101279.84;10537954;28;20050;-69
2022/12/19 03:27:08;;;;;;;27.92;19.48;;;;;;;1.94;100.00;101277.25;10537653;28;20057;-70
2022/12/19 03:32:14;;;;;;;22.53;18.07;;;;;;;2.14;100.00;101271.25;10537900;28;20298;-69
2022/12/19 03:37:23;;;;;;;29.42;26.30;;;;;;;2.36;100.00;101268.69;10538096;28;20069;-69
2022/12/19 03:47:56;;;;;;;18.50;16.92;;;;;;;2.84;100.00;101271.13;10537113;28;20059;-70
2022/12/19 03:53:10;;;;;;;16.10;14.57;;;;;;;3.01;100.00;101268.50;10536776;28;20052;-69
2022/12/19 03:58:24;;;;;;;26.70;17.55;;;;;;;3.20;100.00;101258.09;10536725;28;20067;-72
2022/12/19 04:03:28;;;;;;;28.50;25.98;;;;;;;3.41;100.00;101262.28;10536816;28;20086;-71
2022/12/19 04:08:35;;;;;;;16.85;15.15;;;;;;;3.48;100.00;101260.53;10536202;28;20125;-69
2022/12/19 04:13:43;;;;;;;22.75;16.73;;;;;;;3.48;100.00;101268.25;10533628;28;20148;-70
2022/12/19 04:18:55;;;;;;;19.38;17.23;;;;;;;3.68;100.00;101239.75;10536460;28;20115;-73
2022/12/19 04:24:07;;;;;;;36.05;32.88;;;;;;;3.84;100.00;101247.38;10536080;28;20059;-70
2022/12/19 04:29:13;;;;;;;20.15;18.50;;;;;;;3.94;100.00;101248.16;10535719;28;20051;-66
2022/12/19 04:34:20;;;;;;;36.65;34.00;;;;;;;4.01;100.00;101236.91;10535845;28;20078;-70
2022/12/19 04:39:25;;;;;;;151.60;137.82;;;;;;;4.10;100.00;101231.66;10535188;28;20112;-70
2022/12/19 04:44:26;;;;;;;18.05;16.40;;;;;;;4.15;100.00;101235.94;10533153;28;20054;-66
2022/12/19 04:49:28;;;;;;;14.23;13.05;;;;;;;4.21;100.00;101228.97;10535242;28;20048;-68
2022/12/19 04:54:32;;;;;;;18.02;16.52;;;;;;;4.34;100.00;101223.69;10542356;28;20469;-67
2022/12/19 04:59:34;;;;;;;15.65;14.30;;;;;;;4.38;100.00;101226.22;10544007;28;20514;-70
2022/12/19 05:04:35;;;;;;;14.98;13.70;;;;;;;4.38;100.00;101231.41;10543792;28;20105;-65
2022/12/19 05:09:40;;;;;;;16.92;15.40;;;;;;;4.40;100.00;101226.22;10543475;28;20052;-69
2022/12/19 05:14:42;;;;;;;16.30;14.90;;;;;;;4.53;100.00;101220.91;10540815;28;20054;-69
2022/12/19 05:19:43;;;;;;;16.10;14.57;;;;;;;4.56;100.00;101224.34;10542967;28;20070;-69
2022/12/19 05:24:46;;;;;;;16.13;14.63;;;;;;;4.65;100.00;101213.00;10543256;28;20052;-69
2022/12/19 05:29:48;;;;;;;16.80;13.38;;;;;;;4.70;100.00;101221.59;10542628;28;20056;-68
2022/12/19 05:34:50;;;;;;;24.83;22.77;;;;;;;4.83;100.00;101214.50;10543231;28;20055;-68
2022/12/19 05:39:53;;;;;;;24.70;22.85;;;;;;;4.89;100.00;101214.44;10542547;28;20094;-69
2022/12/19 05:44:55;;;;;;;14.55;13.40;;;;;;;5.11;100.00;101201.25;10539517;28;20109;-71
2022/12/19 05:49:56;;;;;;;17.50;15.90;;;;;;;5.08;100.00;101216.81;10541552;28;20048;-71
2022/12/19 05:54:59;;;;;;;30.40;28.02;;;;;;;5.26;100.00;101220.00;10541596;28;20466;-69
2022/12/19 06:00:01;;;;;;;15.45;13.95;;;;;;;5.20;100.00;101225.28;10541086;28;20052;-70
2022/12/19 06:05:04;;;;;;;27.60;25.65;;;;;;;5.27;100.00;101234.66;10540588;28;20077;-72
2022/12/19 06:10:08;;;;;;;31.33;28.60;;;;;;;5.30;100.00;101224.25;10540823;28;20048;-70
2022/12/19 06:15:11;;;;;;;15.18;14.13;;;;;;;5.33;100.00;101216.44;10538284;28;20459;-67
2022/12/19 06:20:12;;;;;;;17.05;15.73;;;;;;;5.50;100.00;101225.69;10540622;28;20063;-70
2022/12/19 06:25:16;;;;;;;17.98;16.85;;;;;;;5.52;100.00;101209.28;10540364;28;20605;-67
2022/12/19 06:30:17;;;;;;;40.65;38.05;;;;;;;5.59;100.00;101229.88;10539850;28;20044;-69
2022/12/19 06:35:19;;;;;;;16.83;15.18;;;;;;;5.60;100.00;101223.81;10539774;28;20052;-68
2022/12/19 06:45:38;;;;;;;13.95;12.88;;;;;;;5.60;100.00;101236.75;10535234;28;20044;-66
2022/12/19 06:50:39;;;;;;;69.28;64.38;;;;;;;5.61;100.00;101239.34;10538785;28;20040;-66
2022/12/19 06:55:43;;;;;;;32.17;28.40;;;;;;;5.61;100.00;101241.94;10537575;28;20569;-65
2022/12/19 07:00:44;;;;;;;24.27;16.75;;;;;;;5.58;100.00;101247.13;10538679;28;20087;-67
2022/12/19 07:05:47;;;;;;;22.50;20.77;;;;;;;5.63;100.00;101242.78;10538800;28;20098;-65
2022/12/19 07:10:52;;;;;;;26.75;24.85;;;;;;;5.61;100.00;101244.50;10538398;28;20067;-68
2022/12/19 07:15:58;;;;;;;57.63;54.03;;;;;;;5.60;100.00;101245.41;10535418;28;20415;-68
2022/12/19 07:21:00;;;;;;;20.55;18.95;;;;;;;5.60;100.00;101245.41;10538245;28;20066;-67
2022/12/19 07:26:04;;;;;;;38.97;36.45;;;;;;;5.69;100.00;101235.78;10538367;28;20105;-67
2022/12/19 07:31:06;;;;;;;19.35;17.85;;;;;;;5.70;100.00;101250.44;10537842;28;20549;-71
2022/12/19 07:36:08;;;;;;;13.50;12.45;;;;;;;5.74;100.00;101242.59;10537930;28;20093;-66
2022/12/19 07:41:11;;;;;;;44.22;41.25;;;;;;;5.78;100.00;101233.03;10537589;28;20059;-65
2022/12/19 07:46:13;;;;;;;135.57;124.50;;;;;;;5.87;100.00;101247.56;10530252;28;20044;-68
2022/12/19 07:51:15;;;;;;;;;;;;;;;5.85;100.00;101245.00;10537640;28;20044;-65
2022/12/19 07:56:18;;;;;;;44.10;41.22;;;;;;;5.92;100.00;101246.63;10536545;28;19987;-68
2022/12/19 08:01:20;;;;;;;12.50;11.63;;;;;;;5.91;100.00;101265.66;10536773;28;20135;-69
2022/12/19 08:06:22;;;;;;;89.32;83.70;;;;;;;5.95;100.00;101266.44;10536881;28;20138;-67
2022/12/19 08:11:28;;;;;;;;;;;;;;;6.10;100.00;101262.78;10536426;28;20036;-66
2022/12/19 08:16:32;;;;;;;51.33;48.28;;;;;;;6.13;100.00;101280.03;10534745;28;19921;-66
2022/12/19 08:21:33;;;;;;;39.25;35.95;;;;;;;6.26;100.00;101271.13;10536052;28;20051;-67
2022/12/19 08:26:36;;;;;;;21.80;19.98;;;;;;;6.18;100.00;101267.81;10535695;28;20056;-65
2022/12/19 08:31:38;;;;;;;19.35;17.85;;;;;;;6.14;100.00;101266.16;10536237;28;20044;-65
2022/12/19 08:36:41;;;;;;;24.20;22.42;;;;;;;6.22;100.00;101273.84;10535684;28;20106;-66
2022/12/19 08:41:44;;;;;;;31.00;29.08;;;;;;;6.37;100.00;101278.72;10533300;28;20064;-66
2022/12/19 08:46:46;;;;;;;18.65;17.25;;;;;;;6.42;100.00;101291.59;10535314;28;20413;-66
2022/12/19 08:51:47;;;;;;;162.30;149.88;;;;;;;6.47;100.00;101282.03;10536029;28;20089;-66
2022/12/19 08:56:52;;;;;;;18.40;17.08;;;;;;;6.55;100.00;101271.50;10533814;28;20066;-65
2022/12/19 09:01:53;;;;;;;11.63;10.85;;;;;;;6.58;100.00;101276.63;10535278;28;20060;-66
2022/12/19 09:06:56;;;;;;;58.10;54.30;;;;;;;6.67;100.00;101271.25;10535235;28;20109;-69
2022/12/19 09:11:59;;;;;;;30.73;28.40;;;;;;;6.67;100.00;101291.19;10532957;28;20044;-64
2022/12/19 09:17:01;;;;;;;15.00;14.02;;;;;;;6.68;100.00;101285.94;10535015;28;20044;-68
2022/12/19 09:22:03;;;;;;;13.02;12.13;;;;;;;6.69;100.00;101295.44;10535256;28;20048;-68
2022/12/19 09:27:06;;;;;;;52.40;48.97;;;;;;;6.69;100.00;101290.25;10535010;28;20048;-67
2022/12/19 09:32:08;;;;;;;17.67;16.48;;;;;;;6.75;100.00;101299.66;10534772;28;20101;-67
2022/12/19 09:37:11;;;;;;;15.65;14.55;;;;;;;6.71;100.00;101290.25;10534512;28;20098;-68
2022/12/19 09:42:49;;;;;;;16.20;15.07;;;;;;;6.81;100.00;101288.31;10539690;28;20043;-68
2022/12/19 09:47:57;;;;;;;33.22;31.23;;;;;;;6.90;100.00;101290.72;10542709;28;20483;-65
2022/12/19 09:53:06;;;;;;;14.23;13.13;;;;;;;7.01;100.00;101300.03;10542367;28;20074;-66
2022/12/19 09:58:18;;;;;;;14.05;12.60;;;;;;;7.09;100.00;101292.97;10542872;28;20098;-67
2022/12/19 10:03:28;;;;;;;15.18;14.20;;;;;;;7.14;100.00;101306.69;10542651;28;20090;-67
2022/12/19 10:08:35;;;;;;;60.95;56.60;;;;;;;7.24;100.00;101311.66;10542335;28;20399;-71
2022/12/19 10:14:04;;;;;;;12.38;11.38;;;;;;;7.24;100.00;101309.06;10539984;28;20422;-68
2022/12/19 10:19:10;;;;;;;18.40;16.98;;;;;;;7.36;100.00;101303.66;10542276;28;20115;-67
2022/12/19 10:24:49;;;;;;;32.67;30.55;;;;;;;7.37;100.00;101301.88;10542220;28;20048;-69
2022/12/19 10:30:12;;;;;;;27.45;25.45;;;;;;;7.37;100.00;101292.38;10542733;28;20127;-68
2022/12/19 10:35:18;;;;;;;31.55;29.33;;;;;;;7.46;100.00;101318.13;10541657;28;20135;-68
2022/12/19 10:40:28;;;;;;;14.82;13.63;;;;;;;7.37;100.00;101313.13;10541315;28;20571;-65
2022/12/19 10:45:41;;;;;;;20.58;18.85;;;;;;;7.38;100.00;101304.44;10539152;28;20182;-69
2022/12/19 10:50:43;;;;;;;17.85;16.48;;;;;;;7.34;100.00;101297.63;10540549;28;20048;-68
2022/12/19 10:55:47;;;;;;;14.77;13.73;;;;;;;7.29;100.00;101315.06;10541148;28;20062;-67
2022/12/19 11:01:12;;;;;;;18.70;17.45;;;;;;;7.19;100.00;101307.44;10540801;28;20112;-67
2022/12/19 11:06:46;;;;;;;30.08;28.20;;;;;;;7.14;100.00;101301.50;10540107;28;20074;-67
2022/12/19 11:11:55;;;;;;;91.70;84.07;;;;;;;7.08;100.00;101294.69;10537590;28;20046;-66
2022/12/19 11:16:58;;;;;;;17.30;15.95;;;;;;;7.10;100.00;101299.84;10538799;28;20067;-66
2022/12/19 11:22:06;;;;;;;16.20;14.98;;;;;;;7.15;100.00;101277.22;10539744;28;20131;-68
2022/12/19 11:27:34;;;;;;;12.77;11.90;;;;;;;7.20;100.00;101280.59;10538657;28;20541;-65
2022/12/19 11:32:40;;;;;;;40.70;38.33;;;;;;;7.31;100.00;101266.53;10538774;28;20425;-67
2022/12/19 11:37:49;;;;;;;14.45;13.27;;;;;;;7.43;100.00;101261.06;10538906;28;20070;-66
2022/12/19 11:43:01;;;;;;;12.70;11.85;;;;;;;7.57;100.00;101267.69;10536495;28;20063;-70
2022/12/19 11:48:16;;;;;;;12.50;11.47;;;;;;;7.69;100.00;101258.75;10538425;28;20052;-70
2022/12/19 11:53:27;;;;;;;10.13;9.18;;;;;;;7.79;100.00;101246.38;10538102;28;20047;-65
2022/12/19 11:58:29;;;;;;;16.85;15.52;;;;;;;7.92;100.00;101252.16;10538060;28;20060;-66
2022/12/19 12:03:44;;;;;;;;;;;;;;;8.03;100.00;101241.47;10533445;28;20354;-68
2022/12/19 12:09:14;;;;;;;12.90;12.00;;;;;;;8.27;100.00;101231.31;10535924;28;20379;-69
2022/12/19 12:14:22;;;;;;;10.90;10.20;;;;;;;8.24;100.00;101238.34;10535000;28;20052;-67
2022/12/19 12:19:49;;;;;;;12.77;11.85;;;;;;;8.28;100.00;101233.88;10537105;28;20541;-65
2022/12/19 12:25:11;;;;;;;11.25;10.45;;;;;;;8.35;100.00;101216.41;10526012;28;20048;-66
2022/12/19 12:30:18;;;;;;;11.03;10.03;;;;;;;8.49;100.00;101210.81;10535161;28;20071;-64
2022/12/19 12:35:35;;;;;;;8.43;7.65;;;;;;;8.60;100.00;101210.53;10536201;28;20074;-67
2022/12/19 12:41:08;;;;;;;13.50;12.60;;;;;;;8.63;100.00;101213.06;10536174;28;20134;-70
2022/12/19 12:46:17;;;;;;;8.75;8.00;;;;;;;8.70;100.00;101214.59;10532942;28;20644;-66
2022/12/19 12:51:22;;;;;;;20.45;19.20;;;;;;;8.75;100.00;101209.25;10536819;28;20048;-67
2022/12/19 12:56:26;;;;;;;8.38;7.85;;;;;;;8.79;100.00;101212.63;10536589;28;20098;-66
2022/12/19 13:01:35;;;;;;;16.63;15.38;;;;;;;8.88;100.00;101209.75;10536886;28;20090;-67
2022/12/19 13:06:41;;;;;;;7.32;6.63;;;;;;;8.90;100.00;101192.34;10535050;28;20052;-68
2022/12/19 13:17:09;;;;;;;7.30;6.57;;;;;;;9.00;100.00;101169.50;10545044;28;20538;-69
2022/12/19 13:22:36;;;;;;;10.55;9.85;;;;;;;9.06;100.00;101152.84;10545023;28;20101;-69
2022/12/19 13:27:40;;;;;;;8.63;7.93;;;;;;;9.02;100.00;101147.72;10542721;28;20070;-65
2022/12/19 13:33:09;;;;;;;23.80;22.38;;;;;;;8.94;100.00;101149.69;10543724;28;20124;-67
2022/12/19 13:38:21;;;;;;;6.88;6.30;;;;;;;8.91;100.00;101135.91;10543383;28;20119;-67
2022/12/19 13:43:46;;;;;;;5.55;4.47;;;;;;;8.86;100.00;101136.06;10541897;28;20044;-70
2022/12/19 13:48:52;;;;;;;8.15;7.53;;;;;;;8.88;100.00;101129.06;10543015;28;20089;-65
2022/12/19 13:53:57;;;;;;;8.70;6.75;;;;;;;8.88;100.00;101131.66;10543220;28;20048;-66
2022/12/19 13:59:03;;;;;;;6.55;5.82;;;;;;;8.90;100.00;101132.47;10541934;28;20081;-66
2022/12/19 14:04:12;;;;;;;8.55;7.78;;;;;;;8.84;100.00;101133.53;10540078;28;20097;-65
2022/12/19 14:09:29;;;;;;;10.15;9.45;;;;;;;8.83;100.00;101115.34;10538354;28;20579;-68
2022/12/19 14:19:53;;;;;;;14.88;14.02;;;;;;;8.89;100.00;101089.09;10540131;28;20048;-68
2022/12/19 14:25:00;;;;;;;48.55;45.15;;;;;;;8.93;100.00;101102.91;10539734;28;20056;-67
2022/12/19 14:30:07;;;;;;;7.05;6.35;;;;;;;9.06;100.00;101095.56;10539706;28;20056;-68
2022/12/19 14:35:17;;;;;;;26.25;24.73;;;;;;;9.09;100.00;101103.25;10538645;28;20056;-66
2022/12/19 14:40:25;;;;;;;5.65;5.22;;;;;;;9.04;100.00;101086.94;10538386;28;20495;-68
2022/12/19 14:45:34;;;;;;;15.07;14.18;;;;;;;9.00;100.00;101084.41;10532819;28;20055;-67
2022/12/19 14:50:38;;;;;;;4.65;4.20;;;;;;;9.08;100.00;101067.69;10539732;28;20060;-68
2022/12/19 14:55:45;;;;;;;5.65;5.22;;;;;;;9.05;100.00;101084.28;10539625;28;20052;-67
2022/12/19 15:00:51;;;;;;;4.60;4.30;;;;;;;9.08;100.00;101098.94;10498564;28;20053;-65
2022/12/19 15:06:04;;;;;;;7.38;7.03;;;;;;;9.06;100.00;101090.34;10506209;28;20071;-68
2022/12/19 15:16:42;;;;;;;5.22;4.30;;;;;;;9.01;100.00;101088.72;10536216;28;20056;-66
2022/12/19 15:21:44;;;;;;;7.57;7.07;;;;;;;9.07;100.00;101102.47;10536383;28;20063;-67
2022/12/19 15:26:52;;;;;;;4.57;4.18;;;;;;;9.00;100.00;101107.84;10536195;28;20549;-66
2022/12/19 15:31:55;;;;;;;7.97;4.38;;;;;;;8.97;100.00;101123.56;10545320;28;20093;-69
2022/12/19 15:36:58;;;;;;;5.75;5.28;;;;;;;9.01;100.00;101117.34;10548249;28;20503;-73
2022/12/19 15:42:02;;;;;;;4.45;4.05;;;;;;;9.04;100.00;101131.19;10537171;28;20465;-68
2022/12/19 15:47:12;;;;;;;9.25;4.55;;;;;;;9.00;100.00;101138.25;10537095;28;20055;-67
2022/12/19 15:52:17;;;;;;;6.05;5.60;;;;;;;9.04;100.00;101139.00;10536617;28;20656;-67
2022/12/19 15:57:31;;;;;;;5.95;5.40;;;;;;;8.99;100.00;101150.41;10537212;28;20064;-66
2022/12/19 16:02:33;;;;;;;4.60;4.30;;;;;;;9.03;100.00;101135.53;10536411;28;20155;-69
2022/12/19 16:07:35;;;;;;;8.27;4.35;;;;;;;9.07;100.00;101141.50;10536724;28;20052;-70
2022/12/19 16:12:46;;;;;;;6.22;4.50;;;;;;;8.96;100.00;101137.47;10534463;28;20044;-66
2022/12/19 16:17:48;;;;;;;4.93;4.55;;;;;;;9.01;100.00;101132.97;10535943;28;20491;-70
2022/12/19 16:22:50;;;;;;;6.70;6.30;;;;;;;9.01;100.00;101119.97;10535463;28;20644;-69
2022/12/19 16:27:56;;;;;;;;;;;;;;;9.04;100.00;101137.25;10536042;28;20064;-68
2022/12/19 16:32:59;;;;;;;7.05;4.40;;;;;;;9.15;100.00;101131.69;10534531;28;19920;-68
2022/12/19 16:38:01;;;;;;;14.40;13.48;;;;;;;9.14;100.00;101136.03;10534427;28;20097;-66
2022/12/19 16:43:14;;;;;;;4.97;4.57;;;;;;;9.08;100.00;101123.25;10532579;28;20052;-68
2022/12/19 16:48:21;;;;;;;15.48;14.27;;;;;;;9.13;100.00;101121.34;10537986;28;20044;-64
2022/12/19 16:53:23;;;;;;;6.05;5.65;;;;;;;9.02;100.00;101119.06;10542670;28;20055;-66
2022/12/19 16:58:29;;;;;;;12.73;11.43;;;;;;;8.98;100.00;101109.66;10542649;28;20052;-66
2022/12/19 17:03:39;;;;;;;6.38;5.78;;;;;;;8.89;100.00;101120.34;10541976;28;20056;-67
2022/12/19 17:08:42;;;;;;;5.25;4.75;;;;;;;8.91;100.00;101122.91;10542019;28;20393;-67
2022/12/19 17:13:49;;;;;;;5.47;4.97;;;;;;;8.95;100.00;101130.56;10539501;28;20052;-67
2022/12/19 17:18:50;;;;;;;13.65;12.80;;;;;;;9.06;100.00;101134.59;10542352;28;20097;-69
2022/12/19 17:23:52;;;;;;;34.35;31.42;;;;;;;9.02;100.00;101137.31;10541148;28;20568;-67
2022/12/19 17:28:56;;;;;;;5.70;5.20;;;;;;;9.02;100.00;101134.69;10540832;28;20438;-66
2022/12/19 17:33:58;;;;;;;6.25;4.72;;;;;;;9.01;100.00;101130.38;10541089;28;20093;-67
2022/12/19 17:39:00;;;;;;;11.85;11.13;;;;;;;9.03;100.00;101125.13;10540602;28;20051;-63
2022/12/19 17:44:03;;;;;;;5.63;4.70;;;;;;;8.97;100.00;101115.75;10538384;28;20085;-66
2022/12/19 17:49:06;;;;;;;5.93;5.43;;;;;;;8.98;100.00;101112.28;10540472;28;20533;-63
2022/12/19 17:54:11;;;;;;;11.27;9.80;;;;;;;9.04;100.00;101115.56;10540867;28;20044;-63
2022/12/19 17:59:14;;;;;;;4.95;4.55;;;;;;;9.01;100.00;101130.38;10540274;28;20048;-66
2022/12/19 18:04:20;;;;;;;7.70;6.57;;;;;;;8.89;100.00;101115.13;10541026;28;20090;-63
2022/12/19 18:09:24;;;;;;;12.82;11.93;;;;;;;8.92;100.00;101104.63;10540944;28;20071;-66
2022/12/19 18:14:27;;;;;;;4.72;4.05;;;;;;;8.94;100.00;101122.81;10535863;28;20044;-63
2022/12/19 18:19:32;;;;;;;8.48;7.88;;;;;;;8.96;100.00;101121.03;10539268;28;20457;-64
2022/12/19 18:24:34;;;;;;;8.65;8.05;;;;;;;8.95;100.00;101130.56;10498525;28;20534;-64
2022/12/19 18:29:37;;;;;;;7.00;6.10;;;;;;;8.99;100.00;101126.97;10532549;28;20496;-66
2022/12/19 18:34:39;;;;;;;5.68;5.07;;;;;;;9.09;100.00;101124.06;10540409;28;20040;-65
2022/12/19 18:39:42;;;;;;;4.93;4.53;;;;;;;9.06;100.00;101130.22;10539821;28;20419;-64
2022/12/19 18:44:45;;;;;;;6.40;5.85;;;;;;;9.10;100.00;101131.84;10538028;28;20052;-66
2022/12/19 18:49:48;;;;;;;5.43;5.00;;;;;;;9.12;100.00;101122.25;10539931;28;20052;-65
2022/12/19 18:54:50;;;;;;;4.45;4.15;;;;;;;9.20;100.00;101123.75;10539064;28;20496;-65
2022/12/19 18:59:53;;;;;;;5.53;5.05;;;;;;;9.19;100.00;101128.09;10539770;28;20048;-64
2022/12/19 19:04:55;;;;;;;6.32;5.18;;;;;;;9.20;100.00;101129.78;10538390;28;20052;-64
2022/12/19 19:09:57;;;;;;;28.23;26.60;;;;;;;9.30;100.00;101132.13;10538123;28;20047;-64
2022/12/19 19:15:00;;;;;;;8.48;7.70;;;;;;;9.32;100.00;101138.13;10536385;28;20301;-64
2022/12/19 19:20:03;;;;;;;22.08;20.83;;;;;;;9.26;100.00;101140.03;10538620;28;20062;-67
2022/12/19 19:25:06;;;;;;;8.52;7.93;;;;;;;9.37;100.00;101141.41;10538015;28;20048;-65
2022/12/19 19:30:11;;;;;;;9.05;6.68;;;;;;;9.43;100.00;101141.22;10537682;28;20052;-64
2022/12/19 19:35:17;;;;;;;4.63;4.32;;;;;;;9.50;100.00;101153.16;10537552;28;20044;-65
2022/12/19 19:40:19;;;;;;;5.78;5.30;;;;;;;9.55;100.00;101154.75;10537418;28;20515;-64
2022/12/19 19:45:22;;;;;;;7.13;6.55;;;;;;;9.53;100.00;101145.25;10534984;28;20044;-64
2022/12/19 19:50:25;;;;;;;4.28;3.97;;;;;;;9.48;100.00;101152.34;10536984;28;20481;-67
2022/12/19 19:55:28;;;;;;;5.00;4.50;;;;;;;9.42;100.00;101152.56;10536815;28;20047;-65
2022/12/19 20:00:31;;;;;;;6.30;5.70;;;;;;;9.39;100.00;101150.03;10535987;28;20064;-67
2022/12/19 20:05:33;;;;;;;5.20;4.80;;;;;;;9.46;100.00;101158.50;10535497;28;20500;-66
2022/12/19 20:10:34;;;;;;;35.15;32.78;;;;;;;9.40;100.00;101154.34;10534922;28;20565;-67
2022/12/19 20:15:38;;;;;;;11.35;10.45;;;;;;;9.50;100.00;101147.94;10532732;28;20501;-63
2022/12/19 20:20:40;;;;;;;5.93;5.53;;;;;;;9.37;100.00;101151.81;10534613;28;20483;-66
2022/12/19 20:25:41;;;;;;;6.60;6.07;;;;;;;9.31;100.00;101157.25;10534275;28;20053;-64
2022/12/19 20:30:45;;;;;;;10.25;9.65;;;;;;;9.29;100.00;101159.91;10534322;28;20043;-63
2022/12/19 20:35:47;;;;;;;4.97;4.47;;;;;;;9.16;100.00;101158.59;10534728;28;20302;-63
2022/12/19 20:40:54;;;;;;;10.20;7.45;;;;;;;9.09;100.00;101165.72;10534440;28;20054;-65
2022/12/19 20:46:02;;;;;;;5.60;5.10;;;;;;;9.11;100.00;101166.53;10530906;28;20050;-66
2022/12/19 20:51:06;;;;;;;6.88;4.75;;;;;;;9.13;100.00;101159.53;10533806;28;20055;-64
2022/12/19 20:56:11;;;;;;;6.15;4.63;;;;;;;9.09;100.00;101157.91;10532883;28;20071;-63
2022/12/19 21:01:18;;;;;;;11.43;10.60;;;;;;;9.16;100.00;101163.81;10532249;28;20541;-64
2022/12/19 21:06:24;;;;;;;5.10;4.70;;;;;;;9.25;100.00;101164.38;10532605;28;20097;-65
2022/12/19 21:11:26;;;;;;;5.97;5.47;;;;;;;9.24;100.00;101160.03;10532871;28;20190;-64
2022/12/19 21:16:29;;;;;;;;;;;;;;;9.14;100.00;101169.91;10531886;28;20128;-65
2022/12/19 21:21:31;;;;;;;5.32;4.93;;;;;;;9.27;100.00;101165.16;10534358;28;19924;-64
2022/12/19 21:26:33;;;;;;;5.55;4.43;;;;;;;9.36;100.00;101155.34;10533878;28;20074;-65
2022/12/19 21:31:36;;;;;;;4.88;4.47;;;;;;;9.40;100.00;101146.53;10533743;28;20066;-66
2022/12/19 21:36:38;;;;;;;4.88;4.53;;;;;;;9.45;100.00;101155.06;10540091;28;20048;-66
2022/12/19 21:41:40;;;;;;;5.13;4.65;;;;;;;9.46;100.00;101140.25;10540938;28;20052;-65
2022/12/19 21:46:43;;;;;;;21.55;20.15;;;;;;;9.59;100.00;101145.94;10538496;28;20536;-65
2022/12/19 21:51:44;;;;;;;7.35;6.65;;;;;;;9.57;100.00;101140.75;10541359;28;20066;-66
2022/12/19 21:56:46;;;;;;;4.78;4.35;;;;;;;9.43;100.00;101146.44;10541808;28;20052;-64
2022/12/19 22:01:50;;;;;;;4.88;4.55;;;;;;;9.36;100.00;101155.34;10541298;28;20052;-64
2022/12/19 22:06:51;;;;;;;7.38;6.30;;;;;;;9.48;100.00;101159.31;10541220;28;20494;-63
2022/12/19 22:11:53;;;;;;;20.27;18.92;;;;;;;9.46;100.00;101158.50;10539371;28;20388;-65
2022/12/19 22:16:56;;;;;;;10.60;9.82;;;;;;;9.57;100.00;101150.31;10541500;28;20500;-66
2022/12/19 22:21:58;;;;;;;60.90;56.42;;;;;;;9.67;100.00;101125.66;10540911;28;20059;-63
2022/12/19 22:27:01;;;;;;;17.30;16.25;;;;;;;9.68;100.00;101119.53;10540283;28;20044;-63
2022/12/19 22:32:05;;;;;;;5.70;5.15;;;;;;;9.75;100.00;101110.63;10540729;28;20048;-64
2022/12/19 22:37:07;;;;;;;11.57;10.85;;;;;;;9.86;100.00;101102.41;10540152;28;20102;-64
2022/12/19 22:42:08;;;;;;;5.10;4.70;;;;;;;9.77;100.00;101087.97;10537965;28;20365;-63
2022/12/19 22:47:11;;;;;;;4.43;4.13;;;;;;;9.86;100.00;101091.16;10538979;28;20051;-64
2022/12/19 22:52:13;;;;;;;7.30;6.60;;;;;;;9.86;100.00;101112.00;10539261;28;20047;-66
2022/12/19 22:57:15;;;;;;;10.63;9.90;;;;;;;9.89;100.00;101114.50;10538953;28;20105;-65
2022/12/19 23:02:18;;;;;;;24.05;22.10;;;;;;;9.93;100.00;101108.28;10539180;28;20052;-67
2022/12/19 23:07:20;;;;;;;4.65;4.35;;;;;;;9.93;100.00;101108.28;10538645;28;20518;-66
2022/12/19 23:12:21;;;;;;;11.63;10.77;;;;;;;9.86;100.00;101106.78;10536669;28;20056;-64
2022/12/19 23:17:24;;;;;;;4.65;4.35;;;;;;;9.76;100.00;101112.31;10538839;28;20044;-65
2022/12/19 23:22:26;;;;;;;4.72;4.30;;;;;;;9.82;100.00;101106.03;10538290;28;20116;-64
2022/12/19 23:27:29;;;;;;;6.22;5.82;;;;;;;9.87;100.00;101116.31;10538050;28;20051;-65
2022/12/19 23:32:32;;;;;;;4.93;4.38;;;;;;;9.97;100.00;101116.84;10538303;28;20097;-66
2022/12/19 23:37:34;;;;;;;4.53;4.00;;;;;;;9.90;100.00;101111.00;10537484;28;20044;-66
2022/12/19 23:42:35;;;;;;;4.47;4.15;;;;;;;9.91;100.00;101107.47;10535175;28;20499;-65